sensor_id;sensor_type;location;lat;lon;timestamp;pressure;altitude;pressure_sealevel;temperature;humidity
58223;BME280;44020;50.890;15.796;2023-01-31T00:01:40;97171.45;;;1.84;87.84
58223;BME280;44020;50.890;15.796;2023-01-31T00:04:10;97180.32;;;1.85;87.39
58223;BME280;44020;50.890;15.796;2023-01-31T00:06:42;97184.88;;;1.85;87.08
58223;BME280;44020;50.890;15.796;2023-01-31T00:09:12;97189.70;;;1.83;86.92
58223;BME280;44020;50.890;15.796;2023-01-31T00:11:39;97196.29;;;1.80;87.28
58223;BME280;44020;50.890;15.796;2023-01-31T00:14:07;97198.23;;;1.80;87.50
58223;BME280;44020;50.890;15.796;2023-01-31T00:16:36;97201.09;;;1.75;87.79
58223;BME280;44020;50.890;15.796;2023-01-31T00:19:03;97206.88;;;1.70;88.30
58223;BME280;44020;50.890;15.796;2023-01-31T00:21:31;97206.65;;;1.63;88.21
58223;BME280;44020;50.890;15.796;2023-01-31T00:24:00;97198.02;;;1.56;88.67
58223;BME280;44020;50.890;15.796;2023-01-31T00:26:30;97208.06;;;1.55;88.28
58223;BME280;44020;50.890;15.796;2023-01-31T00:28:59;97202.40;;;1.52;88.50
58223;BME280;44020;50.890;15.796;2023-01-31T00:31:28;97206.12;;;1.51;88.18
58223;BME280;44020;50.890;15.796;2023-01-31T00:33:57;97208.30;;;1.50;88.64
58223;BME280;44020;50.890;15.796;2023-01-31T00:36:28;97205.98;;;1.50;88.38
58223;BME280;44020;50.890;15.796;2023-01-31T00:38:58;97208.42;;;1.51;88.41
58223;BME280;44020;50.890;15.796;2023-01-31T00:41:28;97204.71;;;1.51;88.18
58223;BME280;44020;50.890;15.796;2023-01-31T00:43:55;97199.60;;;1.52;87.79
58223;BME280;44020;50.890;15.796;2023-01-31T00:46:24;97205.42;;;1.51;87.65
58223;BME280;44020;50.890;15.796;2023-01-31T00:48:52;97213.25;;;1.52;87.07
58223;BME280;44020;50.890;15.796;2023-01-31T00:51:20;97218.58;;;1.51;87.35
58223;BME280;44020;50.890;15.796;2023-01-31T00:53:48;97224.14;;;1.52;87.26
58223;BME280;44020;50.890;15.796;2023-01-31T01:35:17;97276.68;;;0.89;93.01
58223;BME280;44020;50.890;15.796;2023-01-31T03:02:59;97361.64;;;0.80;89.69
58223;BME280;44020;50.890;15.796;2023-01-31T03:12:59;97374.20;;;0.81;91.38
58223;BME280;44020;50.890;15.796;2023-01-31T03:16:27;97374.93;;;0.76;92.12
58223;BME280;44020;50.890;15.796;2023-01-31T03:19:15;97365.63;;;0.72;92.65
58223;BME280;44020;50.890;15.796;2023-01-31T03:32:21;97402.60;;;0.79;92.68
58223;BME280;44020;50.890;15.796;2023-01-31T03:35:44;97403.55;;;0.77;92.67
58223;BME280;44020;50.890;15.796;2023-01-31T03:38:34;97408.40;;;0.79;92.78
58223;BME280;44020;50.890;15.796;2023-01-31T03:41:49;97416.77;;;0.79;93.10
58223;BME280;44020;50.890;15.796;2023-01-31T03:51:36;97433.77;;;0.78;92.55
58223;BME280;44020;50.890;15.796;2023-01-31T04:00:55;97437.45;;;0.87;91.86
58223;BME280;44020;50.890;15.796;2023-01-31T04:04:48;97435.91;;;0.86;91.53
58223;BME280;44020;50.890;15.796;2023-01-31T04:06:54;97432.33;;;0.84;91.77
58223;BME280;44020;50.890;15.796;2023-01-31T04:09:32;97441.00;;;0.86;91.73
58223;BME280;44020;50.890;15.796;2023-01-31T04:12:29;97447.73;;;0.84;91.81
58223;BME280;44020;50.890;15.796;2023-01-31T04:21:56;97458.55;;;0.74;93.00
58223;BME280;44020;50.890;15.796;2023-01-31T04:27:56;97455.06;;;0.69;93.37
58223;BME280;44020;50.890;15.796;2023-01-31T04:31:16;97455.27;;;0.69;93.37
58223;BME280;44020;50.890;15.796;2023-01-31T04:40:31;97457.15;;;0.70;92.28
58223;BME280;44020;50.890;15.796;2023-01-31T04:43:08;97463.91;;;0.71;91.89
58223;BME280;44020;50.890;15.796;2023-01-31T04:45:48;97464.55;;;0.68;91.92
58223;BME280;44020;50.890;15.796;2023-01-31T04:48:33;97451.39;;;0.59;92.25
58223;BME280;44020;50.890;15.796;2023-01-31T05:04:30;97466.02;;;0.61;92.23
58223;BME280;44020;50.890;15.796;2023-01-31T05:07:17;97470.36;;;0.67;91.59
58223;BME280;44020;50.890;15.796;2023-01-31T05:10:04;97467.56;;;0.72;90.13
58223;BME280;44020;50.890;15.796;2023-01-31T05:13:20;97465.98;;;0.72;90.12
58223;BME280;44020;50.890;15.796;2023-01-31T05:16:26;97473.11;;;0.73;89.93
58223;BME280;44020;50.890;15.796;2023-01-31T05:19:33;97475.55;;;0.78;89.78
58223;BME280;44020;50.890;15.796;2023-01-31T05:22:20;97477.06;;;0.75;90.00
58223;BME280;44020;50.890;15.796;2023-01-31T05:28:42;97486.41;;;0.73;89.84
58223;BME280;44020;50.890;15.796;2023-01-31T05:31:32;97484.23;;;0.75;89.39
58223;BME280;44020;50.890;15.796;2023-01-31T05:34:18;97484.75;;;0.75;89.24
58223;BME280;44020;50.890;15.796;2023-01-31T05:41:16;97488.86;;;0.72;88.79
58223;BME280;44020;50.890;15.796;2023-01-31T05:56:52;97506.52;;;0.62;88.45
58223;BME280;44020;50.890;15.796;2023-01-31T05:59:20;97509.46;;;0.63;88.47
58223;BME280;44020;50.890;15.796;2023-01-31T06:08:54;97530.13;;;0.57;88.21
58223;BME280;44020;50.890;15.796;2023-01-31T06:11:50;97548.46;;;0.57;87.92
58223;BME280;44020;50.890;15.796;2023-01-31T06:28:58;97569.43;;;1.10;86.33
58223;BME280;44020;50.890;15.796;2023-01-31T06:35:10;97587.80;;;0.94;86.60
58223;BME280;44020;50.890;15.796;2023-01-31T06:41:29;97596.73;;;0.83;86.85
58223;BME280;44020;50.890;15.796;2023-01-31T06:54:59;97601.23;;;0.58;87.91
58223;BME280;44020;50.890;15.796;2023-01-31T07:00:53;97604.77;;;0.56;88.21
58223;BME280;44020;50.890;15.796;2023-01-31T07:03:40;97604.61;;;0.56;88.33
58223;BME280;44020;50.890;15.796;2023-01-31T07:06:58;97598.14;;;0.56;88.45
58223;BME280;44020;50.890;15.796;2023-01-31T07:16:07;97603.75;;;0.67;88.84
58223;BME280;44020;50.890;15.796;2023-01-31T07:31:11;97610.92;;;0.67;90.62
58223;BME280;44020;50.890;15.796;2023-01-31T07:40:37;97617.24;;;0.71;91.11
58223;BME280;44020;50.890;15.796;2023-01-31T07:43:46;97619.23;;;0.75;91.07
58223;BME280;44020;50.890;15.796;2023-01-31T07:46:28;97628.86;;;0.79;90.93
58223;BME280;44020;50.890;15.796;2023-01-31T07:53:05;97648.09;;;0.91;89.70
58223;BME280;44020;50.890;15.796;2023-01-31T07:55:43;97653.79;;;0.98;89.09
58223;BME280;44020;50.890;15.796;2023-01-31T07:58:20;97647.61;;;1.00;88.71
58223;BME280;44020;50.890;15.796;2023-01-31T08:04:59;97654.44;;;1.05;88.91
58223;BME280;44020;50.890;15.796;2023-01-31T08:07:26;97659.81;;;1.07;89.14
58223;BME280;44020;50.890;15.796;2023-01-31T08:17:21;97656.48;;;1.17;88.96
58223;BME280;44020;50.890;15.796;2023-01-31T08:20:22;97644.28;;;1.21;89.04
58223;BME280;44020;50.890;15.796;2023-01-31T08:22:54;97642.72;;;1.21;89.11
58223;BME280;44020;50.890;15.796;2023-01-31T08:25:41;97643.55;;;1.28;89.00
58223;BME280;44020;50.890;15.796;2023-01-31T08:44:27;97652.34;;;1.36;88.33
58223;BME280;44020;50.890;15.796;2023-01-31T08:50:35;97653.95;;;1.41;87.73
58223;BME280;44020;50.890;15.796;2023-01-31T08:53:04;97651.48;;;1.41;87.78
58223;BME280;44020;50.890;15.796;2023-01-31T08:59:16;97675.90;;;1.44;87.41
58223;BME280;44020;50.890;15.796;2023-01-31T09:02:05;97673.75;;;1.40;87.97
58223;BME280;44020;50.890;15.796;2023-01-31T09:08:11;97680.36;;;1.36;88.65
58223;BME280;44020;50.890;15.796;2023-01-31T09:11:18;97680.89;;;1.36;88.82
58223;BME280;44020;50.890;15.796;2023-01-31T09:17:06;97689.35;;;1.44;89.05
58223;BME280;44020;50.890;15.796;2023-01-31T09:19:37;97685.09;;;1.46;89.18
58223;BME280;44020;50.890;15.796;2023-01-31T09:22:26;97688.67;;;1.49;89.09
58223;BME280;44020;50.890;15.796;2023-01-31T09:25:10;97680.95;;;1.50;89.04
58223;BME280;44020;50.890;15.796;2023-01-31T09:35:23;97680.80;;;1.49;89.91
58223;BME280;44020;50.890;15.796;2023-01-31T09:44:27;97663.95;;;1.50;90.67
58223;BME280;44020;50.890;15.796;2023-01-31T10:07:22;97651.02;;;1.50;92.32
58223;BME280;44020;50.890;15.796;2023-01-31T10:09:59;97653.94;;;1.51;92.44
58223;BME280;44020;50.890;15.796;2023-01-31T10:16:57;97658.73;;;1.49;92.90
58223;BME280;44020;50.890;15.796;2023-01-31T10:20:09;97662.23;;;1.49;92.90
58223;BME280;44020;50.890;15.796;2023-01-31T10:23:30;97663.58;;;1.51;92.82
58223;BME280;44020;50.890;15.796;2023-01-31T10:26:12;97657.32;;;1.55;93.00
58223;BME280;44020;50.890;15.796;2023-01-31T10:29:36;97657.13;;;1.60;92.61
58223;BME280;44020;50.890;15.796;2023-01-31T10:31:59;97657.48;;;1.60;92.58
58223;BME280;44020;50.890;15.796;2023-01-31T10:45:18;97653.50;;;1.69;92.86
58223;BME280;44020;50.890;15.796;2023-01-31T10:47:55;97654.58;;;1.72;92.79
58223;BME280;44020;50.890;15.796;2023-01-31T10:51:01;97663.70;;;1.77;92.64
58223;BME280;44020;50.890;15.796;2023-01-31T10:57:46;97652.59;;;1.70;93.15
58223;BME280;44020;50.890;15.796;2023-01-31T11:00:25;97656.17;;;1.67;93.17
58223;BME280;44020;50.890;15.796;2023-01-31T11:02:57;97656.52;;;1.67;93.13
58223;BME280;44020;50.890;15.796;2023-01-31T11:05:28;97650.92;;;1.67;92.97
58223;BME280;44020;50.890;15.796;2023-01-31T11:09:02;97648.24;;;1.69;92.93
58223;BME280;44020;50.890;15.796;2023-01-31T11:11:28;97644.56;;;1.73;93.18
58223;BME280;44020;50.890;15.796;2023-01-31T11:14:48;97640.16;;;1.74;93.20
58223;BME280;44020;50.890;15.796;2023-01-31T11:17:36;97641.05;;;1.79;92.98
58223;BME280;44020;50.890;15.796;2023-01-31T11:20:22;97642.36;;;1.86;93.00
58223;BME280;44020;50.890;15.796;2023-01-31T11:26:30;97639.80;;;1.94;92.91
58223;BME280;44020;50.890;15.796;2023-01-31T11:28:40;97634.70;;;1.99;92.09
58223;BME280;44020;50.890;15.796;2023-01-31T11:31:19;97628.31;;;2.01;92.19
58223;BME280;44020;50.890;15.796;2023-01-31T11:34:00;97624.11;;;2.06;91.86
58223;BME280;44020;50.890;15.796;2023-01-31T11:36:38;97621.14;;;2.10;90.84
58223;BME280;44020;50.890;15.796;2023-01-31T11:39:29;97617.05;;;2.12;90.23
58223;BME280;44020;50.890;15.796;2023-01-31T11:42:15;97608.02;;;2.14;90.45
58223;BME280;44020;50.890;15.796;2023-01-31T11:47:58;97591.86;;;2.24;89.87
58223;BME280;44020;50.890;15.796;2023-01-31T11:51:27;97585.50;;;2.26;89.25
58223;BME280;44020;50.890;15.796;2023-01-31T11:53:53;97576.27;;;2.28;89.17
58223;BME280;44020;50.890;15.796;2023-01-31T11:56:43;97578.20;;;2.33;89.38
58223;BME280;44020;50.890;15.796;2023-01-31T11:59:17;97570.88;;;2.37;88.47
58223;BME280;44020;50.890;15.796;2023-01-31T12:01:54;97561.16;;;2.39;88.24
58223;BME280;44020;50.890;15.796;2023-01-31T12:04:39;97552.52;;;2.40;88.30
58223;BME280;44020;50.890;15.796;2023-01-31T12:07:27;97550.58;;;2.44;88.13
58223;BME280;44020;50.890;15.796;2023-01-31T12:10:45;97541.47;;;2.48;87.55
58223;BME280;44020;50.890;15.796;2023-01-31T12:13:53;97543.79;;;2.52;87.27
58223;BME280;44020;50.890;15.796;2023-01-31T12:16:29;97535.15;;;2.53;86.34
58223;BME280;44020;50.890;15.796;2023-01-31T12:22:35;97525.40;;;2.60;87.02
58223;BME280;44020;50.890;15.796;2023-01-31T12:31:44;97517.89;;;2.76;86.56
58223;BME280;44020;50.890;15.796;2023-01-31T12:34:49;97520.77;;;2.79;85.67
58223;BME280;44020;50.890;15.796;2023-01-31T12:43:56;97495.41;;;2.89;85.25
58223;BME280;44020;50.890;15.796;2023-01-31T12:47:23;97492.30;;;2.96;84.77
58223;BME280;44020;50.890;15.796;2023-01-31T12:54:00;97475.28;;;3.04;84.77
58223;BME280;44020;50.890;15.796;2023-01-31T13:05:50;97461.46;;;3.11;84.38
58223;BME280;44020;50.890;15.796;2023-01-31T13:07:47;97454.71;;;3.13;83.97
58223;BME280;44020;50.890;15.796;2023-01-31T13:10:44;97446.99;;;3.12;83.67
58223;BME280;44020;50.890;15.796;2023-01-31T13:13:26;97439.49;;;3.11;83.83
58223;BME280;44020;50.890;15.796;2023-01-31T13:16:45;97438.23;;;3.12;83.73
58223;BME280;44020;50.890;15.796;2023-01-31T13:19:26;97431.77;;;3.11;83.76
58223;BME280;44020;50.890;15.796;2023-01-31T13:22:48;97425.22;;;3.12;83.69
58223;BME280;44020;50.890;15.796;2023-01-31T13:25:12;97423.79;;;3.13;83.42
58223;BME280;44020;50.890;15.796;2023-01-31T13:27:46;97422.05;;;3.12;83.65
58223;BME280;44020;50.890;15.796;2023-01-31T13:33:13;97417.33;;;3.13;83.25
58223;BME280;44020;50.890;15.796;2023-01-31T13:39:07;97404.68;;;3.08;83.02
58223;BME280;44020;50.890;15.796;2023-01-31T13:41:59;97399.51;;;3.07;83.19
58223;BME280;44020;50.890;15.796;2023-01-31T13:44:29;97394.83;;;3.06;83.20
58223;BME280;44020;50.890;15.796;2023-01-31T13:47:04;97390.05;;;3.06;83.26
58223;BME280;44020;50.890;15.796;2023-01-31T13:49:43;97383.76;;;3.06;83.41
58223;BME280;44020;50.890;15.796;2023-01-31T13:52:47;97376.73;;;3.06;82.92
58223;BME280;44020;50.890;15.796;2023-01-31T13:55:29;97369.54;;;3.02;82.98
58223;BME280;44020;50.890;15.796;2023-01-31T13:58:05;97368.74;;;3.00;82.75
58223;BME280;44020;50.890;15.796;2023-01-31T14:00:44;97368.98;;;2.99;82.84
58223;BME280;44020;50.890;15.796;2023-01-31T14:03:15;97362.25;;;3.00;82.53
58223;BME280;44020;50.890;15.796;2023-01-31T14:11:44;97348.23;;;3.00;82.51
58223;BME280;44020;50.890;15.796;2023-01-31T14:15:42;97340.60;;;3.02;82.35
58223;BME280;44020;50.890;15.796;2023-01-31T14:26:32;97339.23;;;3.05;82.59
58223;BME280;44020;50.890;15.796;2023-01-31T14:29:13;97339.63;;;3.07;82.63
58223;BME280;44020;50.890;15.796;2023-01-31T14:31:45;97333.98;;;3.08;82.52
58223;BME280;44020;50.890;15.796;2023-01-31T14:34:28;97334.67;;;3.08;82.12
58223;BME280;44020;50.890;15.796;2023-01-31T14:43:33;97339.17;;;3.06;82.16
58223;BME280;44020;50.890;15.796;2023-01-31T15:01:58;97345.02;;;2.86;82.58
58223;BME280;44020;50.890;15.796;2023-01-31T15:04:39;97340.36;;;2.84;82.82
58223;BME280;44020;50.890;15.796;2023-01-31T15:07:27;97341.21;;;2.84;83.01
58223;BME280;44020;50.890;15.796;2023-01-31T15:10:03;97335.97;;;2.88;82.94
58223;BME280;44020;50.890;15.796;2023-01-31T15:15:55;97335.02;;;2.85;82.87
58223;BME280;44020;50.890;15.796;2023-01-31T15:18:29;97337.08;;;2.86;82.90
58223;BME280;44020;50.890;15.796;2023-01-31T15:21:02;97334.91;;;2.88;83.07
58223;BME280;44020;50.890;15.796;2023-01-31T15:23:44;97320.80;;;2.89;83.14
58223;BME280;44020;50.890;15.796;2023-01-31T15:26:28;97321.12;;;2.90;83.16
58223;BME280;44020;50.890;15.796;2023-01-31T15:32:57;97304.02;;;2.85;83.05
58223;BME280;44020;50.890;15.796;2023-01-31T15:35:57;97296.78;;;2.82;83.09
58223;BME280;44020;50.890;15.796;2023-01-31T15:43:54;97284.52;;;2.82;83.18
58223;BME280;44020;50.890;15.796;2023-01-31T15:46:26;97286.77;;;2.82;83.38
58223;BME280;44020;50.890;15.796;2023-01-31T15:48:57;97280.66;;;2.81;83.22
58223;BME280;44020;50.890;15.796;2023-01-31T15:51:26;97279.35;;;2.79;83.18
58223;BME280;44020;50.890;15.796;2023-01-31T15:54:12;97273.83;;;2.77;83.15
58223;BME280;44020;50.890;15.796;2023-01-31T15:56:54;97276.51;;;2.76;83.25
58223;BME280;44020;50.890;15.796;2023-01-31T16:06:39;97258.25;;;2.73;83.15
58223;BME280;44020;50.890;15.796;2023-01-31T16:10:03;97260.89;;;2.73;82.94
58223;BME280;44020;50.890;15.796;2023-01-31T16:16:02;97260.61;;;2.71;82.94
58223;BME280;44020;50.890;15.796;2023-01-31T16:19:47;97264.31;;;2.70;82.72
58223;BME280;44020;50.890;15.796;2023-01-31T16:22:31;97267.09;;;2.71;82.81
58223;BME280;44020;50.890;15.796;2023-01-31T16:25:16;97276.30;;;2.73;82.43
58223;BME280;44020;50.890;15.796;2023-01-31T16:27:53;97273.98;;;2.70;82.66
58223;BME280;44020;50.890;15.796;2023-01-31T16:30:49;97282.00;;;2.71;82.84
58223;BME280;44020;50.890;15.796;2023-01-31T16:36:13;97280.73;;;2.72;82.77
58223;BME280;44020;50.890;15.796;2023-01-31T16:38:53;97274.73;;;2.73;82.93
58223;BME280;44020;50.890;15.796;2023-01-31T16:41:47;97283.30;;;2.73;83.04
58223;BME280;44020;50.890;15.796;2023-01-31T16:44:22;97276.04;;;2.75;83.15
58223;BME280;44020;50.890;15.796;2023-01-31T16:47:04;97277.98;;;2.75;83.18
58223;BME280;44020;50.890;15.796;2023-01-31T16:49:50;97268.59;;;2.73;83.23
58223;BME280;44020;50.890;15.796;2023-01-31T16:52:28;97270.16;;;2.73;83.40
58223;BME280;44020;50.890;15.796;2023-01-31T16:55:00;97263.31;;;2.73;83.68
58223;BME280;44020;50.890;15.796;2023-01-31T17:00:02;97263.20;;;2.76;83.73
58223;BME280;44020;50.890;15.796;2023-01-31T17:02:53;97257.27;;;2.75;83.77
58223;BME280;44020;50.890;15.796;2023-01-31T17:05:56;97248.42;;;2.76;83.85
58223;BME280;44020;50.890;15.796;2023-01-31T17:11:53;97246.04;;;2.79;83.73
58223;BME280;44020;50.890;15.796;2023-01-31T17:15:04;97239.09;;;2.81;83.96
58223;BME280;44020;50.890;15.796;2023-01-31T17:21:17;97239.75;;;2.82;83.74
58223;BME280;44020;50.890;15.796;2023-01-31T17:23:44;97230.61;;;2.82;83.91
58223;BME280;44020;50.890;15.796;2023-01-31T17:26:22;97240.18;;;2.84;84.09
58223;BME280;44020;50.890;15.796;2023-01-31T17:31:56;97234.92;;;2.88;83.90
58223;BME280;44020;50.890;15.796;2023-01-31T17:35:33;97237.30;;;2.89;83.73
58223;BME280;44020;50.890;15.796;2023-01-31T17:40:54;97243.89;;;2.95;83.94
58223;BME280;44020;50.890;15.796;2023-01-31T17:43:55;97244.12;;;2.97;83.77
58223;BME280;44020;50.890;15.796;2023-01-31T17:52:54;97220.98;;;3.08;83.66
58223;BME280;44020;50.890;15.796;2023-01-31T17:59:17;97206.67;;;3.10;83.56
58223;BME280;44020;50.890;15.796;2023-01-31T18:01:48;97202.30;;;3.09;83.80
58223;BME280;44020;50.890;15.796;2023-01-31T18:07:30;97206.20;;;3.12;83.85
58223;BME280;44020;50.890;15.796;2023-01-31T18:09:58;97206.38;;;3.16;83.76
58223;BME280;44020;50.890;15.796;2023-01-31T18:12:26;97203.20;;;3.17;83.89
58223;BME280;44020;50.890;15.796;2023-01-31T18:18:31;97217.82;;;3.22;83.40
58223;BME280;44020;50.890;15.796;2023-01-31T18:28:30;97201.47;;;3.23;84.05
58223;BME280;44020;50.890;15.796;2023-01-31T18:38:01;97202.40;;;3.14;85.07
58223;BME280;44020;50.890;15.796;2023-01-31T18:47:29;97197.86;;;3.14;85.60
58223;BME280;44020;50.890;15.796;2023-01-31T18:49:58;97188.40;;;3.14;85.53
58223;BME280;44020;50.890;15.796;2023-01-31T18:52:30;97185.77;;;3.14;85.66
58223;BME280;44020;50.890;15.796;2023-01-31T18:55:49;97189.14;;;3.17;85.97
58223;BME280;44020;50.890;15.796;2023-01-31T18:58:34;97192.08;;;3.18;85.92
58223;BME280;44020;50.890;15.796;2023-01-31T19:04:59;97200.80;;;3.19;86.11
58223;BME280;44020;50.890;15.796;2023-01-31T19:07:46;97199.16;;;3.20;86.11
58223;BME280;44020;50.890;15.796;2023-01-31T19:10:12;97202.20;;;3.23;86.02
58223;BME280;44020;50.890;15.796;2023-01-31T19:12:47;97198.77;;;3.24;85.77
58223;BME280;44020;50.890;15.796;2023-01-31T19:15:15;97190.56;;;3.27;86.10
58223;BME280;44020;50.890;15.796;2023-01-31T19:17:53;97182.79;;;3.28;86.05
58223;BME280;44020;50.890;15.796;2023-01-31T19:20:39;97189.95;;;3.29;86.35
58223;BME280;44020;50.890;15.796;2023-01-31T19:23:10;97187.19;;;3.28;86.10
58223;BME280;44020;50.890;15.796;2023-01-31T19:26:01;97192.40;;;3.29;86.33
58223;BME280;44020;50.890;15.796;2023-01-31T19:37:10;97177.63;;;3.26;86.72
58223;BME280;44020;50.890;15.796;2023-01-31T19:39:48;97181.94;;;3.27;86.72
58223;BME280;44020;50.890;15.796;2023-01-31T19:42:40;97168.15;;;3.26;86.88
58223;BME280;44020;50.890;15.796;2023-01-31T19:48:24;97179.45;;;3.25;87.01
58223;BME280;44020;50.890;15.796;2023-01-31T19:51:17;97174.70;;;3.25;87.26
58223;BME280;44020;50.890;15.796;2023-01-31T19:54:02;97158.63;;;3.23;87.39
58223;BME280;44020;50.890;15.796;2023-01-31T19:56:50;97151.15;;;3.22;87.44
58223;BME280;44020;50.890;15.796;2023-01-31T19:59:17;97154.45;;;3.22;87.40
58223;BME280;44020;50.890;15.796;2023-01-31T20:01:48;97152.96;;;3.24;87.53
58223;BME280;44020;50.890;15.796;2023-01-31T20:04:26;97145.34;;;3.26;87.52
58223;BME280;44020;50.890;15.796;2023-01-31T20:06:56;97144.94;;;3.26;87.41
58223;BME280;44020;50.890;15.796;2023-01-31T20:09:27;97149.30;;;3.31;87.39
58223;BME280;44020;50.890;15.796;2023-01-31T20:11:57;97138.97;;;3.30;87.43
58223;BME280;44020;50.890;15.796;2023-01-31T20:14:24;97139.09;;;3.31;87.29
58223;BME280;44020;50.890;15.796;2023-01-31T20:16:55;97144.59;;;3.33;87.07
58223;BME280;44020;50.890;15.796;2023-01-31T20:19:23;97141.16;;;3.36;86.92
58223;BME280;44020;50.890;15.796;2023-01-31T20:22:08;97143.08;;;3.36;87.11
58223;BME280;44020;50.890;15.796;2023-01-31T20:24:35;97134.05;;;3.37;86.87
58223;BME280;44020;50.890;15.796;2023-01-31T20:27:03;97129.79;;;3.38;86.97
58223;BME280;44020;50.890;15.796;2023-01-31T20:29:30;97123.05;;;3.39;86.96
58223;BME280;44020;50.890;15.796;2023-01-31T20:31:58;97125.74;;;3.42;86.89
58223;BME280;44020;50.890;15.796;2023-01-31T20:34:29;97129.70;;;3.43;86.86
58223;BME280;44020;50.890;15.796;2023-01-31T20:37:00;97128.77;;;3.48;86.61
58223;BME280;44020;50.890;15.796;2023-01-31T20:39:33;97132.73;;;3.49;86.57
58223;BME280;44020;50.890;15.796;2023-01-31T20:42:27;97133.42;;;3.49;86.61
58223;BME280;44020;50.890;15.796;2023-01-31T20:45:00;97145.97;;;3.51;86.64
58223;BME280;44020;50.890;15.796;2023-01-31T20:47:37;97141.34;;;3.52;86.58
58223;BME280;44020;50.890;15.796;2023-01-31T20:50:14;97141.61;;;3.54;86.68
58223;BME280;44020;50.890;15.796;2023-01-31T20:52:53;97142.80;;;3.59;86.39
58223;BME280;44020;50.890;15.796;2023-01-31T20:55:22;97142.77;;;3.55;86.65
58223;BME280;44020;50.890;15.796;2023-01-31T20:57:53;97140.04;;;3.54;86.90
58223;BME280;44020;50.890;15.796;2023-01-31T21:00:34;97148.17;;;3.53;87.08
58223;BME280;44020;50.890;15.796;2023-01-31T21:03:04;97150.02;;;3.51;87.18
58223;BME280;44020;50.890;15.796;2023-01-31T21:05:53;97143.37;;;3.50;87.08
58223;BME280;44020;50.890;15.796;2023-01-31T21:27:16;97150.52;;;3.62;85.63
58223;BME280;44020;50.890;15.796;2023-01-31T21:29:43;97145.58;;;3.63;85.30
58223;BME280;44020;50.890;15.796;2023-01-31T21:32:30;97150.61;;;3.64;85.26
58223;BME280;44020;50.890;15.796;2023-01-31T21:42:05;97158.52;;;3.67;83.93
58223;BME280;44020;50.890;15.796;2023-01-31T21:45:31;97149.39;;;3.67;84.06
58223;BME280;44020;50.890;15.796;2023-01-31T22:05:28;97164.95;;;3.51;85.05
58223;BME280;44020;50.890;15.796;2023-01-31T22:11:17;97155.83;;;3.44;85.18
58223;BME280;44020;50.890;15.796;2023-01-31T22:20:48;97161.71;;;3.46;85.00
58223;BME280;44020;50.890;15.796;2023-01-31T22:23:43;97158.70;;;3.46;85.04
58223;BME280;44020;50.890;15.796;2023-01-31T22:30:06;97158.50;;;3.47;84.56
58223;BME280;44020;50.890;15.796;2023-01-31T22:32:53;97160.35;;;3.45;84.42
58223;BME280;44020;50.890;15.796;2023-01-31T22:35:21;97167.02;;;3.45;84.28
58223;BME280;44020;50.890;15.796;2023-01-31T22:38:18;97168.60;;;3.45;84.21
58223;BME280;44020;50.890;15.796;2023-01-31T22:41:09;97158.89;;;3.39;84.79
58223;BME280;44020;50.890;15.796;2023-01-31T22:43:45;97153.25;;;3.36;85.06
58223;BME280;44020;50.890;15.796;2023-01-31T22:46:40;97161.36;;;3.35;85.21
58223;BME280;44020;50.890;15.796;2023-01-31T22:49:20;97155.40;;;3.35;85.21
58223;BME280;44020;50.890;15.796;2023-01-31T23:13:55;97143.21;;;3.22;85.05
58223;BME280;44020;50.890;15.796;2023-01-31T23:16:25;97150.72;;;3.23;84.66
58223;BME280;44020;50.890;15.796;2023-01-31T23:25:30;97149.28;;;3.24;83.94
58223;BME280;44020;50.890;15.796;2023-01-31T23:31:21;97149.40;;;3.25;83.84
58223;BME280;44020;50.890;15.796;2023-01-31T23:34:21;97139.83;;;3.20;84.17
58223;BME280;44020;50.890;15.796;2023-01-31T23:36:59;97136.63;;;3.17;84.34
58223;BME280;44020;50.890;15.796;2023-01-31T23:39:27;97145.11;;;3.16;84.44
58223;BME280;44020;50.890;15.796;2023-01-31T23:42:46;97157.34;;;3.13;84.11
58223;BME280;44020;50.890;15.796;2023-01-31T23:45:26;97149.84;;;3.13;83.84
58223;BME280;44020;50.890;15.796;2023-01-31T23:54:26;97146.52;;;3.12;83.49
58223;BME280;44020;50.890;15.796;2023-01-31T23:57:18;97140.20;;;3.12;83.36
